createdAt,value
2018-02-17T00:01:38.726Z,-1.57
2018-02-17T00:04:07.506Z,-1.76
2018-02-17T00:06:35.795Z,-1.75
2018-02-17T00:09:04.072Z,-1.93
2018-02-17T00:11:32.350Z,-2.06
2018-02-17T00:14:00.611Z,-1.91
2018-02-17T00:16:28.899Z,-1.78
2018-02-17T00:18:57.167Z,-1.84
2018-02-17T00:21:25.440Z,-1.88
2018-02-17T00:23:53.722Z,-1.86
2018-02-17T00:26:22.022Z,-1.90
2018-02-17T00:28:50.290Z,-2.26
2018-02-17T00:31:18.599Z,-2.37
2018-02-17T00:33:47.639Z,-2.14
2018-02-17T00:36:15.913Z,-2.11
2018-02-17T00:38:45.397Z,-2.15
2018-02-17T00:41:13.734Z,-2.28
2018-02-17T00:43:42.006Z,-2.26
2018-02-17T00:46:11.047Z,-2.12
2018-02-17T00:48:40.983Z,-2.03
2018-02-17T00:51:09.278Z,-2.15
2018-02-17T00:53:37.539Z,-2.39
2018-02-17T00:56:05.812Z,-2.50
2018-02-17T00:58:34.082Z,-2.58
2018-02-17T01:01:02.363Z,-2.44
2018-02-17T01:03:30.618Z,-2.32
2018-02-17T01:05:59.642Z,-2.11
2018-02-17T01:08:27.914Z,-2.04
2018-02-17T01:10:56.202Z,-2.19
2018-02-17T01:13:25.716Z,-2.19
2018-02-17T01:15:53.969Z,-2.34
2018-02-17T01:18:22.215Z,-2.24
2018-02-17T01:20:51.259Z,-2.23
2018-02-17T01:23:19.515Z,-2.20
2018-02-17T01:25:47.786Z,-2.06
2018-02-17T01:28:16.050Z,-2.03
2018-02-17T01:30:45.080Z,-2.00
2018-02-17T01:33:13.343Z,-2.06
2018-02-17T01:35:41.609Z,-2.11
2018-02-17T01:38:09.879Z,-2.27
2018-02-17T01:40:38.940Z,-2.53
2018-02-17T01:43:07.205Z,-2.61
2018-02-17T01:45:35.480Z,-2.72
2018-02-17T01:48:04.515Z,-2.56
2018-02-17T01:50:33.563Z,-2.45
2018-02-17T01:53:01.870Z,-2.39
2018-02-17T01:55:30.119Z,-2.30
2018-02-17T01:57:58.399Z,-2.40
2018-02-17T02:00:26.679Z,-2.44
2018-02-17T02:02:54.955Z,-2.28
2018-02-17T02:05:23.215Z,-2.15
2018-02-17T02:07:51.479Z,-2.20
2018-02-17T02:10:19.753Z,-2.16
2018-02-17T02:12:48.010Z,-2.02
2018-02-17T02:15:16.283Z,-1.87
2018-02-17T02:17:44.542Z,-1.91
2018-02-17T02:20:13.574Z,-1.93
2018-02-17T02:22:41.851Z,-2.05
2018-02-17T02:25:10.115Z,-2.27
2018-02-17T02:27:38.378Z,-2.14
2018-02-17T02:30:07.406Z,-2.36
2018-02-17T02:32:36.680Z,-2.52
2018-02-17T02:35:04.943Z,-2.19
2018-02-17T02:37:33.984Z,-1.99
2018-02-17T02:40:03.036Z,-1.90
2018-02-17T02:42:31.328Z,-1.86
2018-02-17T02:44:59.611Z,-1.84
2018-02-17T02:47:27.905Z,-1.96
2018-02-17T02:49:56.179Z,-1.91
2018-02-17T02:52:24.541Z,-1.99
2018-02-17T02:54:52.797Z,-2.00
2018-02-17T02:57:21.840Z,-2.05
2018-02-17T02:59:50.110Z,-2.12
2018-02-17T03:02:18.377Z,-2.20
2018-02-17T03:04:46.667Z,-2.21
2018-02-17T03:07:14.926Z,-2.13
2018-02-17T03:09:43.183Z,-2.10
2018-02-17T03:12:11.465Z,-2.12
2018-02-17T03:14:39.725Z,-2.26
2018-02-17T03:17:08.819Z,-2.14
2018-02-17T03:19:37.838Z,-2.15
2018-02-17T03:22:06.126Z,-2.38
2018-02-17T03:24:34.430Z,-2.47
2018-02-17T03:27:02.718Z,-2.30
2018-02-17T03:29:30.988Z,-2.32
2018-02-17T03:31:59.242Z,-2.39
2018-02-17T03:34:27.511Z,-2.23
2018-02-17T03:36:55.794Z,-2.30
2018-02-17T03:39:24.063Z,-2.24
2018-02-17T03:41:52.336Z,-2.27
2018-02-17T03:44:20.595Z,-2.28
2018-02-17T03:46:48.904Z,-2.85
2018-02-17T03:49:17.160Z,-2.92
2018-02-17T03:51:45.415Z,-2.78
2018-02-17T03:54:13.899Z,-2.80
2018-02-17T03:56:42.160Z,-3.05
2018-02-17T03:59:10.439Z,-2.93
2018-02-17T04:01:38.695Z,-2.82
2018-02-17T04:04:07.729Z,-2.73
2018-02-17T04:06:36.031Z,-2.57
2018-02-17T04:09:04.287Z,-2.51
2018-02-17T04:11:33.366Z,-2.49
2018-02-17T04:14:01.630Z,-2.54
2018-02-17T04:16:29.885Z,-2.94
2018-02-17T04:18:58.919Z,-2.94
2018-02-17T04:21:27.183Z,-2.70
2018-02-17T04:23:55.455Z,-2.73
2018-02-17T04:26:23.731Z,-2.59
2018-02-17T04:28:51.994Z,-2.42
2018-02-17T04:31:20.283Z,-2.44
2018-02-17T04:33:48.564Z,-2.38
2018-02-17T04:36:16.833Z,-2.20
2018-02-17T04:38:45.090Z,-2.21
2018-02-17T04:41:19.032Z,-2.20
2018-02-17T04:43:59.038Z,-2.33
2018-02-17T04:46:34.212Z,-2.29
2018-02-17T04:49:05.512Z,-2.33
2018-02-17T04:51:49.421Z,-2.27
2018-02-17T04:54:23.138Z,-2.25
2018-02-17T04:56:55.905Z,-2.63
2018-02-17T05:02:51.560Z,-3.16
2018-02-17T05:08:26.712Z,-3.15
2018-02-17T05:10:54.968Z,-3.08
2018-02-17T05:13:23.231Z,-3.16
2018-02-17T05:16:05.376Z,-2.95
2018-02-17T05:18:48.531Z,-2.72
2018-02-17T05:21:18.721Z,-2.72
2018-02-17T05:23:47.045Z,-2.78
2018-02-17T05:26:15.642Z,-2.86
2018-02-17T05:28:45.750Z,-2.87
2018-02-17T05:31:15.958Z,-2.84
2018-02-17T05:33:49.881Z,-2.70
2018-02-17T05:36:20.579Z,-2.70
2018-02-17T05:39:07.421Z,-2.53
2018-02-17T05:41:50.562Z,-2.40
2018-02-17T05:47:41.806Z,-2.10
2018-02-17T05:50:10.075Z,-2.09
2018-02-17T05:52:38.354Z,-2.04
2018-02-17T05:55:06.619Z,-1.98
2018-02-17T05:57:34.899Z,-1.97
2018-02-17T06:00:03.174Z,-2.07
2018-02-17T06:02:31.462Z,-2.22
2018-02-17T06:04:59.779Z,-2.40
2018-02-17T06:07:28.043Z,-2.22
2018-02-17T06:09:57.067Z,-2.17
2018-02-17T06:12:25.336Z,-2.11
2018-02-17T06:14:53.589Z,-2.08
2018-02-17T06:17:21.902Z,-2.02
2018-02-17T06:19:50.151Z,-2.00
2018-02-17T06:22:18.427Z,-1.95
2018-02-17T06:24:46.683Z,-1.89
2018-02-17T06:27:15.714Z,-1.88
2018-02-17T06:29:43.991Z,-1.88
2018-02-17T06:32:12.255Z,-1.92
2018-02-17T06:34:40.530Z,-2.00
2018-02-17T06:37:08.792Z,-1.83
2018-02-17T06:39:37.815Z,-1.72
2018-02-17T06:42:06.101Z,-1.66
2018-02-17T06:44:34.355Z,-1.74
2018-02-17T06:47:02.662Z,-1.71
2018-02-17T06:49:30.922Z,-1.57
2018-02-17T06:51:59.185Z,-1.63
2018-02-17T06:54:27.461Z,-1.56
2018-02-17T06:56:55.731Z,-1.58
2018-02-17T06:59:24.912Z,-1.55
2018-02-17T07:01:53.940Z,-1.60
2018-02-17T07:04:22.207Z,-1.48
2018-02-17T07:06:50.475Z,-1.51
2018-02-17T07:09:18.741Z,-1.42
2018-02-17T07:11:47.603Z,-1.59
2018-02-17T07:14:15.868Z,-1.78
2018-02-17T07:16:44.126Z,-2.07
2018-02-17T07:19:12.407Z,-2.20
2018-02-17T07:21:40.671Z,-1.92
2018-02-17T07:24:08.950Z,-1.73
2018-02-17T07:26:37.211Z,-1.86
2018-02-17T07:29:05.504Z,-1.56
2018-02-17T07:31:33.803Z,-1.39
2018-02-17T07:34:02.066Z,-1.30
2018-02-17T07:36:30.339Z,-1.30
2018-02-17T07:38:58.604Z,-1.20
2018-02-17T07:41:26.883Z,-1.13
2018-02-17T07:43:55.945Z,-1.02
2018-02-17T07:46:24.208Z,-0.86
2018-02-17T07:48:52.515Z,-0.86
2018-02-17T07:51:20.775Z,-1.05
2018-02-17T07:53:49.059Z,-0.80
2018-02-17T07:56:17.328Z,-0.67
2018-02-17T07:58:45.592Z,-0.60
2018-02-17T08:01:13.863Z,-0.71
2018-02-17T08:03:42.128Z,-0.40
2018-02-17T08:06:11.147Z,-0.41
2018-02-17T08:08:39.428Z,-0.57
2018-02-17T08:11:07.687Z,-0.45
2018-02-17T08:13:35.975Z,-0.26
2018-02-17T08:16:04.219Z,0.00
2018-02-17T08:18:33.244Z,0.31
2018-02-17T08:21:01.503Z,0.42
2018-02-17T08:23:29.824Z,0.62
2018-02-17T08:25:58.068Z,0.29
2018-02-17T08:28:26.892Z,0.24
2018-02-17T08:30:55.957Z,0.33
2018-02-17T08:33:24.216Z,0.44
2018-02-17T08:35:52.466Z,0.50
2018-02-17T08:38:21.492Z,0.70
2018-02-17T08:40:49.737Z,0.79
2018-02-17T08:43:18.755Z,0.84
2018-02-17T08:45:47.149Z,0.82
2018-02-17T08:48:15.421Z,1.06
2018-02-17T08:50:43.678Z,1.26
2018-02-17T08:53:11.966Z,0.97
2018-02-17T08:55:40.302Z,0.99
2018-02-17T08:58:08.566Z,1.32
2018-02-17T09:00:36.817Z,1.58
2018-02-17T09:03:05.087Z,1.87
2018-02-17T09:05:33.356Z,2.11
2018-02-17T09:08:01.590Z,2.35
2018-02-17T09:13:32.218Z,2.52
2018-02-17T09:16:00.490Z,2.56
2018-02-17T09:18:28.738Z,2.56
2018-02-17T09:20:56.995Z,2.69
2018-02-17T09:23:25.259Z,2.64
2018-02-17T09:25:54.303Z,2.59
2018-02-17T09:28:22.571Z,2.77
2018-02-17T09:30:50.815Z,2.87
2018-02-17T09:33:19.062Z,3.10
2018-02-17T09:35:47.328Z,3.29
2018-02-17T09:38:15.575Z,3.38
2018-02-17T09:40:43.855Z,3.59
2018-02-17T09:43:12.091Z,3.65
2018-02-17T09:45:40.343Z,3.76
2018-02-17T09:48:09.376Z,3.73
2018-02-17T09:50:37.631Z,3.82
2018-02-17T09:53:06.663Z,3.85
2018-02-17T09:55:34.951Z,3.79
2018-02-17T09:58:03.206Z,3.46
2018-02-17T10:00:31.496Z,3.74
2018-02-17T10:03:00.530Z,3.66
2018-02-17T10:05:29.582Z,3.68
2018-02-17T10:07:57.833Z,3.60
2018-02-17T10:10:26.147Z,3.86
2018-02-17T10:12:54.393Z,3.93
2018-02-17T10:15:22.675Z,3.85
2018-02-17T10:17:50.923Z,3.88
2018-02-17T10:20:19.175Z,4.11
2018-02-17T10:22:48.206Z,4.02
2018-02-17T10:25:16.531Z,4.06
2018-02-17T10:27:44.784Z,3.97
2018-02-17T10:30:13.037Z,4.21
2018-02-17T10:32:41.314Z,4.52
2018-02-17T10:35:09.578Z,4.51
2018-02-17T10:37:37.838Z,4.60
2018-02-17T10:40:06.856Z,4.90
2018-02-17T10:42:35.102Z,5.01
2018-02-17T10:45:04.147Z,5.08
2018-02-17T10:47:32.392Z,4.87
2018-02-17T10:50:00.659Z,5.11
2018-02-17T10:52:28.902Z,5.17
2018-02-17T10:54:57.154Z,5.22
2018-02-17T10:57:25.412Z,5.38
2018-02-17T10:59:53.675Z,5.36
2018-02-17T11:02:21.946Z,5.49
2018-02-17T11:04:50.216Z,5.75
2018-02-17T11:07:18.462Z,5.60
2018-02-17T11:09:46.710Z,5.57
2018-02-17T11:12:14.977Z,5.77
2018-02-17T11:14:43.220Z,5.86
2018-02-17T11:17:11.483Z,6.14
2018-02-17T11:19:40.509Z,6.35
2018-02-17T11:22:08.795Z,6.39
2018-02-17T11:24:37.071Z,6.06
2018-02-17T11:27:05.335Z,6.40
2018-02-17T11:29:33.601Z,6.56
2018-02-17T11:32:01.855Z,6.51
2018-02-17T11:34:30.884Z,6.63
2018-02-17T11:36:59.126Z,6.47
2018-02-17T11:39:28.144Z,6.54
2018-02-17T11:41:56.416Z,6.30
2018-02-17T11:44:24.675Z,6.44
2018-02-17T11:46:52.942Z,6.14
2018-02-17T11:49:21.961Z,6.15
2018-02-17T11:51:50.216Z,6.27
2018-02-17T11:54:18.471Z,5.95
2018-02-17T11:56:46.770Z,6.07
2018-02-17T11:59:15.787Z,6.14
2018-02-17T12:01:44.051Z,6.02
2018-02-17T12:04:12.317Z,6.27
2018-02-17T12:06:40.567Z,6.48
2018-02-17T12:09:09.593Z,6.45
2018-02-17T12:11:37.875Z,6.22
2018-02-17T12:14:06.119Z,6.49
2018-02-17T12:16:35.174Z,6.64
2018-02-17T12:19:03.422Z,6.29
2018-02-17T12:21:31.693Z,6.18
2018-02-17T12:23:59.940Z,6.32
2018-02-17T12:26:29.069Z,6.58
2018-02-17T12:28:57.319Z,6.90
2018-02-17T12:31:26.350Z,6.87
2018-02-17T12:33:54.592Z,7.03
2018-02-17T12:36:23.639Z,7.24
2018-02-17T12:38:51.911Z,7.47
2018-02-17T12:41:20.258Z,7.57
2018-02-17T12:43:48.508Z,7.48
2018-02-17T12:46:17.594Z,7.63
2018-02-17T12:48:46.679Z,7.63
2018-02-17T12:51:15.003Z,7.94
2018-02-17T12:53:43.259Z,8.02
2018-02-17T12:56:11.511Z,8.08
2018-02-17T12:58:39.790Z,8.01
2018-02-17T13:01:08.055Z,8.11
2018-02-17T13:03:36.303Z,7.89
2018-02-17T13:06:04.586Z,7.99
2018-02-17T13:08:32.839Z,7.70
2018-02-17T13:11:01.106Z,7.73
2018-02-17T13:13:29.432Z,7.77
2018-02-17T13:15:57.652Z,7.47
2018-02-17T13:18:25.923Z,7.01
2018-02-17T13:20:54.182Z,7.21
2018-02-17T13:23:24.034Z,7.35
2018-02-17T13:25:52.308Z,7.47
2018-02-17T13:28:28.464Z,7.59
2018-02-17T13:30:56.715Z,7.57
2018-02-17T13:33:25.856Z,7.54
2018-02-17T13:35:54.133Z,7.34
2018-02-17T13:38:22.379Z,7.23
2018-02-17T13:40:50.760Z,7.22
2018-02-17T13:43:19.045Z,7.35
2018-02-17T13:45:47.299Z,7.49
2018-02-17T13:48:15.693Z,7.69
2018-02-17T13:50:43.969Z,7.74
2018-02-17T13:53:12.288Z,7.81
2018-02-17T13:55:40.592Z,7.78
2018-02-17T13:58:09.804Z,7.76
2018-02-17T14:00:37.992Z,7.79
2018-02-17T14:03:06.254Z,7.81
2018-02-17T14:05:34.530Z,7.84
2018-02-17T14:08:02.782Z,8.01
2018-02-17T14:10:31.813Z,8.11
2018-02-17T14:13:00.140Z,8.33
2018-02-17T14:15:28.542Z,8.54
2018-02-17T14:17:57.807Z,8.48
2018-02-17T14:20:27.784Z,8.39
2018-02-17T14:22:56.143Z,8.35
2018-02-17T14:25:24.524Z,8.42
2018-02-17T14:27:52.857Z,8.43
2018-02-17T14:30:21.225Z,8.64
2018-02-17T14:32:49.656Z,8.40
2018-02-17T14:35:18.035Z,8.67
2018-02-17T14:37:47.560Z,9.00
2018-02-17T14:40:16.220Z,8.92
2018-02-17T14:42:44.632Z,8.77
2018-02-17T14:45:12.922Z,8.34
2018-02-17T14:47:41.235Z,7.92
2018-02-17T14:50:10.295Z,7.50
2018-02-17T14:52:38.586Z,7.52
2018-02-17T14:55:06.855Z,7.51
2018-02-17T14:57:35.123Z,7.50
2018-02-17T15:00:03.474Z,7.17
2018-02-17T15:02:31.776Z,7.39
2018-02-17T15:05:00.116Z,7.42
2018-02-17T15:07:28.399Z,7.48
2018-02-17T15:09:56.677Z,7.04
2018-02-17T15:12:24.957Z,6.52
2018-02-17T15:14:53.245Z,6.63
2018-02-17T15:17:21.511Z,6.67
2018-02-17T15:19:49.835Z,6.37
2018-02-17T15:22:18.186Z,6.19
2018-02-17T15:24:46.522Z,5.87
2018-02-17T15:27:14.849Z,6.04
2018-02-17T15:29:43.203Z,5.88
2018-02-17T15:32:11.576Z,5.64
2018-02-17T15:34:39.943Z,5.39
2018-02-17T15:37:08.256Z,5.47
2018-02-17T15:39:36.519Z,5.38
2018-02-17T15:42:04.807Z,5.56
2018-02-17T15:44:33.200Z,5.50
2018-02-17T15:47:01.479Z,5.49
2018-02-17T15:49:29.834Z,5.50
2018-02-17T15:51:58.198Z,5.36
2018-02-17T15:54:26.467Z,5.30
2018-02-17T15:56:54.937Z,5.21
2018-02-17T15:59:23.314Z,5.05
2018-02-17T16:01:52.337Z,5.15
2018-02-17T16:04:20.651Z,4.85
2018-02-17T16:06:49.732Z,4.64
2018-02-17T16:09:19.772Z,4.62
2018-02-17T16:11:48.186Z,4.33
2018-02-17T16:14:17.760Z,4.36
2018-02-17T16:16:47.106Z,4.33
2018-02-17T16:19:15.532Z,4.07
2018-02-17T16:21:44.591Z,3.88
2018-02-17T16:24:12.846Z,4.04
2018-02-17T16:26:41.246Z,4.00
2018-02-17T16:29:09.498Z,3.87
2018-02-17T16:31:37.774Z,3.84
2018-02-17T16:34:06.081Z,3.65
2018-02-17T16:36:35.233Z,3.72
2018-02-17T16:39:03.635Z,3.48
2018-02-17T16:41:31.927Z,3.69
2018-02-17T16:44:00.195Z,3.73
2018-02-17T16:46:28.528Z,3.68
2018-02-17T16:48:56.800Z,3.58
2018-02-17T16:51:25.944Z,3.48
2018-02-17T16:53:54.218Z,3.55
2018-02-17T16:56:22.626Z,3.34
2018-02-17T16:58:50.927Z,3.26
2018-02-17T17:01:21.078Z,3.07
2018-02-17T17:03:49.968Z,3.11
2018-02-17T17:06:18.551Z,3.14
2018-02-17T17:08:47.017Z,3.14
2018-02-17T17:11:15.851Z,3.21
2018-02-17T17:13:45.437Z,2.92
2018-02-17T17:16:13.989Z,2.81
2018-02-17T17:18:42.754Z,2.61
2018-02-17T17:21:11.351Z,2.77
2018-02-17T17:23:40.173Z,2.59
2018-02-17T17:26:09.171Z,2.59
2018-02-17T17:28:38.544Z,2.67
2018-02-17T17:31:07.249Z,2.70
2018-02-17T17:33:35.892Z,2.57
2018-02-17T17:36:04.330Z,2.21
2018-02-17T17:38:33.103Z,2.31
2018-02-17T17:41:01.591Z,2.30
2018-02-17T17:43:29.932Z,2.26
2018-02-17T17:45:58.818Z,2.08
2018-02-17T17:48:27.735Z,2.07
2018-02-17T17:50:56.632Z,2.09
2018-02-17T17:53:26.239Z,2.06
2018-02-17T17:55:56.185Z,2.05
2018-02-17T17:58:25.469Z,1.97
2018-02-17T18:00:56.253Z,2.07
2018-02-17T18:03:25.472Z,1.97
2018-02-17T18:05:55.363Z,1.94
2018-02-17T18:08:24.188Z,1.94
2018-02-17T18:10:54.573Z,1.92
2018-02-17T18:13:24.445Z,1.71
2018-02-17T18:15:54.331Z,1.78
2018-02-17T18:18:25.178Z,1.83
2018-02-17T18:20:54.966Z,1.71
2018-02-17T18:23:24.194Z,1.74
2018-02-17T18:25:54.113Z,1.52
2018-02-17T18:28:24.059Z,1.50
2018-02-17T18:30:54.082Z,1.36
2018-02-17T18:33:24.055Z,1.43
2018-02-17T18:35:53.466Z,1.58
2018-02-17T18:38:22.841Z,1.46
2018-02-17T18:40:52.996Z,1.48
2018-02-17T18:43:22.266Z,1.55
2018-02-17T18:45:52.396Z,1.55
2018-02-17T18:48:21.735Z,1.52
2018-02-17T18:50:51.159Z,1.22
2018-02-17T18:53:20.503Z,1.14
2018-02-17T18:55:49.785Z,1.06
2018-02-17T18:58:19.098Z,1.04
2018-02-17T19:00:48.378Z,1.07
2018-02-17T19:03:17.807Z,1.05
2018-02-17T19:05:48.122Z,0.75
2018-02-17T19:08:18.331Z,0.65
2018-02-17T19:10:47.670Z,0.73
2018-02-17T19:13:16.978Z,0.64
2018-02-17T19:15:46.965Z,0.55
2018-02-17T19:18:16.755Z,0.68
2018-02-17T19:20:47.349Z,0.69
2018-02-17T19:23:17.214Z,0.71
2018-02-17T19:25:47.460Z,0.65
2018-02-17T19:28:16.997Z,0.76
2018-02-17T19:30:47.858Z,0.67
2018-02-17T19:33:18.475Z,0.81
2018-02-17T19:35:49.228Z,0.89
2018-02-17T19:38:20.423Z,0.98
2018-02-17T19:40:50.436Z,1.08
2018-02-17T19:43:20.292Z,1.10
2018-02-17T19:45:50.446Z,1.17
2018-02-17T19:48:19.739Z,1.22
2018-02-17T19:50:50.478Z,1.24
2018-02-17T19:53:19.872Z,1.25
2018-02-17T19:55:50.819Z,1.20
2018-02-17T19:58:20.212Z,1.19
2018-02-17T20:00:51.058Z,1.17
2018-02-17T20:03:20.392Z,1.19
2018-02-17T20:05:49.677Z,1.14
2018-02-17T20:08:19.662Z,1.09
2018-02-17T20:10:50.365Z,0.99
2018-02-17T20:13:19.809Z,0.82
2018-02-17T20:15:49.915Z,0.29
2018-02-17T20:18:20.335Z,0.35
2018-02-17T20:20:50.393Z,0.41
2018-02-17T20:23:20.319Z,0.41
2018-02-17T20:25:50.299Z,0.44
2018-02-17T20:28:21.072Z,0.49
2018-02-17T20:30:51.924Z,0.53
2018-02-17T20:33:21.838Z,0.50
2018-02-17T20:35:52.467Z,0.48
2018-02-17T20:38:22.410Z,0.48
2018-02-17T20:40:53.197Z,0.41
2018-02-17T20:43:22.620Z,0.31
2018-02-17T20:45:52.213Z,0.18
2018-02-17T20:48:22.182Z,0.00
2018-02-17T20:50:52.919Z,0.05
2018-02-17T20:53:22.951Z,0.08
2018-02-17T20:55:52.717Z,0.11
2018-02-17T20:58:22.150Z,0.11
2018-02-17T21:00:52.474Z,0.11
2018-02-17T21:03:21.978Z,0.09
2018-02-17T21:05:53.201Z,-0.01
2018-02-17T21:08:23.446Z,-0.03
2018-02-17T21:10:53.523Z,-0.02
2018-02-17T21:13:23.071Z,-0.02
2018-02-17T21:15:53.930Z,-0.18
2018-02-17T21:18:24.165Z,-0.42
2018-02-17T21:20:54.238Z,-0.39
2018-02-17T21:23:24.427Z,-0.30
2018-02-17T21:25:54.279Z,-0.21
2018-02-17T21:28:24.449Z,-0.18
2018-02-17T21:30:53.750Z,-0.16
2018-02-17T21:33:23.624Z,-0.25
2018-02-17T21:35:52.893Z,-0.24
2018-02-17T21:38:22.861Z,-0.22
2018-02-17T21:40:52.864Z,-0.17
2018-02-17T21:43:22.806Z,-0.76
2018-02-17T21:45:52.264Z,-1.05
2018-02-17T21:48:21.573Z,-0.75
2018-02-17T21:50:51.459Z,-0.54
2018-02-17T21:53:22.214Z,-0.59
2018-02-17T21:55:52.875Z,-0.67
2018-02-17T21:58:23.588Z,-0.49
2018-02-17T22:00:53.770Z,-0.44
2018-02-17T22:03:23.706Z,-0.48
2018-02-17T22:05:54.771Z,-0.41
2018-02-17T22:08:24.577Z,-0.42
2018-02-17T22:10:54.597Z,-0.63
2018-02-17T22:13:24.468Z,-0.52
2018-02-17T22:15:54.446Z,-0.42
2018-02-17T22:18:24.334Z,-0.52
2018-02-17T22:20:55.033Z,-0.61
2018-02-17T22:23:25.495Z,-0.59
2018-02-17T22:25:55.555Z,-0.77
2018-02-17T22:28:25.314Z,-0.72
2018-02-17T22:30:56.007Z,-0.90
2018-02-17T22:33:25.825Z,-0.73
2018-02-17T22:35:55.722Z,-0.57
2018-02-17T22:38:25.645Z,-0.52
2018-02-17T22:40:55.510Z,-0.47
2018-02-17T22:43:25.150Z,-0.47
2018-02-17T22:45:55.126Z,-0.48
2018-02-17T22:48:25.294Z,-0.53
2018-02-17T22:50:54.684Z,-0.58
2018-02-17T22:53:24.528Z,-0.65
2018-02-17T22:55:54.489Z,-0.68
2018-02-17T22:58:24.420Z,-0.72
2018-02-17T23:00:53.788Z,-0.72
2018-02-17T23:03:23.600Z,-0.85
2018-02-17T23:05:52.789Z,-0.99
2018-02-17T23:08:21.319Z,-1.11
2018-02-17T23:10:49.696Z,-1.25
2018-02-17T23:13:18.154Z,-1.40
2018-02-17T23:15:46.415Z,-1.29
2018-02-17T23:18:14.709Z,-1.34
2018-02-17T23:20:42.971Z,-1.41
2018-02-17T23:23:11.256Z,-1.52
2018-02-17T23:25:39.538Z,-1.66
2018-02-17T23:28:07.811Z,-1.71
2018-02-17T23:30:36.172Z,-1.71
2018-02-17T23:33:04.446Z,-1.74
2018-02-17T23:35:32.808Z,-1.88
2018-02-17T23:38:01.138Z,-1.91
2018-02-17T23:40:29.407Z,-1.90
2018-02-17T23:42:57.687Z,-1.99
2018-02-17T23:45:26.042Z,-1.95
2018-02-17T23:47:54.300Z,-1.90
2018-02-17T23:50:22.559Z,-1.91
2018-02-17T23:52:51.054Z,-1.87
2018-02-17T23:55:19.338Z,-1.93
2018-02-17T23:57:47.612Z,-1.88
